Time;durP1;ratioP1;P1;durP2;ratioP2;P2;SDS_P1;SDS_P2;PMS_P1;PMS_P2;Temp;Humidity;BMP_temperature;BMP_pressure;BME280_temperature;BME280_humidity;BME280_pressure;Samples;Min_cycle;Max_cycle;Signal;HPM_P1;HPM_P2
2022/03/15 00:00:27;;;;;;;2.40;1.40;;;;;;;21.25;nan;100138.84;5111311;28;20093;-56
2022/03/15 00:02:54;;;;;;;2.03;1.23;;;;;;;21.26;nan;100127.34;5111243;28;20442;-56
2022/03/15 00:05:20;;;;;;;1.88;1.13;;;;;;;21.25;nan;100128.53;5110985;28;20423;-56
2022/03/15 00:07:47;;;;;;;2.15;1.35;;;;;;;21.26;nan;100127.34;5111093;28;20042;-56
2022/03/15 00:10:13;;;;;;;1.98;1.30;;;;;;;21.25;nan;100130.50;5110852;28;20054;-56
2022/03/15 00:12:39;;;;;;;2.08;1.40;;;;;;;21.23;nan;100128.09;5110860;28;20043;-56
2022/03/15 00:15:09;;;;;;;2.67;1.38;;;;;;;21.21;nan;100124.84;5110689;28;20052;-56
2022/03/15 00:17:36;;;;;;;2.63;1.27;;;;;;;21.22;nan;100125.66;5110790;28;20040;-56
2022/03/15 00:20:04;;;;;;;2.00;1.30;;;;;;;21.22;nan;100132.03;5110719;28;20539;-56
2022/03/15 00:22:33;;;;;;;1.88;1.20;;;;;;;21.25;nan;100136.06;5110927;28;20052;-56
2022/03/15 00:24:59;;;;;;;1.90;1.20;;;;;;;21.25;nan;100141.63;5110676;28;20074;-57
2022/03/15 00:27:24;;;;;;;1.73;1.10;;;;;;;21.22;nan;100139.56;5110917;28;20138;-56
2022/03/15 00:29:49;;;;;;;1.98;1.25;;;;;;;21.21;nan;100135.97;5110971;28;20412;-56
2022/03/15 00:32:17;;;;;;;2.03;1.20;;;;;;;21.22;nan;100143.19;5110855;28;20060;-56
2022/03/15 00:34:42;;;;;;;2.00;1.25;;;;;;;21.22;nan;100148.75;5110860;28;20051;-56
2022/03/15 00:37:08;;;;;;;1.95;1.23;;;;;;;21.21;nan;100152.66;5110530;28;20580;-57
2022/03/15 00:39:34;;;;;;;1.90;1.13;;;;;;;21.22;nan;100171.00;5110202;28;20043;-56
2022/03/15 00:41:59;;;;;;;2.40;1.60;;;;;;;21.22;nan;100162.66;5110243;28;20556;-56
2022/03/15 00:44:24;;;;;;;1.85;1.17;;;;;;;21.22;nan;100159.88;5110688;28;20488;-56
2022/03/15 00:46:52;;;;;;;2.38;1.35;;;;;;;21.22;nan;100156.25;5110403;28;20040;-56
2022/03/15 00:49:18;;;;;;;2.40;1.48;;;;;;;21.21;nan;100163.78;5110594;28;20051;-57
2022/03/15 00:51:44;;;;;;;3.50;1.15;;;;;;;21.23;nan;100171.81;5110395;28;20050;-56
2022/03/15 00:54:09;;;;;;;3.13;1.90;;;;;;;21.21;nan;100158.22;5110813;28;20035;-56
2022/03/15 00:56:35;;;;;;;2.10;1.25;;;;;;;21.22;nan;100167.38;5110250;28;20054;-56
2022/03/15 00:59:00;;;;;;;2.13;1.17;;;;;;;21.21;nan;100171.34;5110204;28;20076;-56
2022/03/15 01:01:25;;;;;;;1.80;1.20;;;;;;;21.19;nan;100171.69;5105208;28;20058;-60
2022/03/15 01:03:51;;;;;;;1.67;1.13;;;;;;;21.20;nan;100175.28;5109460;28;20071;-60
2022/03/15 01:06:17;;;;;;;2.03;1.38;;;;;;;21.19;nan;100179.25;5110188;28;20044;-60
2022/03/15 01:08:42;;;;;;;1.95;1.25;;;;;;;21.19;nan;100174.47;5110453;28;20126;-60
2022/03/15 01:11:07;;;;;;;2.08;1.20;;;;;;;21.19;nan;100166.13;5091863;28;20039;-60
2022/03/15 01:13:33;;;;;;;2.65;1.20;;;;;;;21.17;nan;100158.16;5110258;28;20448;-60
2022/03/15 01:15:58;;;;;;;2.25;1.40;;;;;;;21.17;nan;100174.84;5110013;28;20044;-60
2022/03/15 01:18:24;;;;;;;1.85;1.23;;;;;;;21.19;nan;100170.91;5110195;28;20036;-60
2022/03/15 01:20:51;;;;;;;1.83;1.30;;;;;;;21.18;nan;100164.53;5110187;28;20126;-60
2022/03/15 01:23:16;;;;;;;2.20;1.40;;;;;;;21.17;nan;100160.13;5110055;28;20052;-60
2022/03/15 01:25:42;;;;;;;1.88;1.20;;;;;;;21.17;nan;100166.50;5109953;28;20044;-60
2022/03/15 01:28:08;;;;;;;2.22;1.50;;;;;;;21.16;nan;100156.53;5109953;28;20052;-60
2022/03/15 01:30:34;;;;;;;2.20;1.40;;;;;;;21.17;nan;100162.91;5109998;28;20059;-60
2022/03/15 01:32:59;;;;;;;1.80;1.23;;;;;;;21.19;nan;100170.91;5109175;28;20039;-60
2022/03/15 01:35:25;;;;;;;2.13;1.30;;;;;;;21.16;nan;100164.88;5109909;28;20506;-60
2022/03/15 01:37:50;;;;;;;1.95;1.10;;;;;;;21.16;nan;100178.78;5116399;28;20457;-60
2022/03/15 01:40:16;;;;;;;1.90;1.20;;;;;;;21.16;nan;100180.78;5130430;28;20046;-60
2022/03/15 01:42:41;;;;;;;1.38;0.98;;;;;;;21.13;nan;100182.28;5130349;28;20042;-60
2022/03/15 01:45:07;;;;;;;1.63;1.08;;;;;;;21.16;nan;100189.13;5130295;28;20047;-60
2022/03/15 01:47:33;;;;;;;1.70;1.17;;;;;;;21.16;nan;100170.44;5130006;28;20050;-60
2022/03/15 01:49:58;;;;;;;1.92;1.13;;;;;;;21.12;nan;100177.88;5130193;28;20415;-60
2022/03/15 01:52:24;;;;;;;1.60;1.10;;;;;;;21.19;nan;100193.16;5130139;28;20043;-60
2022/03/15 01:54:50;;;;;;;2.38;1.30;;;;;;;21.16;nan;100201.06;5131697;27;20086;-60
2022/03/15 01:57:16;;;;;;;1.80;1.10;;;;;;;21.17;nan;100193.50;5133834;28;20047;-60
2022/03/15 01:59:42;;;;;;;1.40;1.00;;;;;;;21.19;nan;100191.16;5133778;28;20418;-60
2022/03/15 02:02:07;;;;;;;2.33;1.42;;;;;;;21.18;nan;100195.13;5133715;28;20042;-60
2022/03/15 02:04:34;;;;;;;1.85;1.20;;;;;;;21.17;nan;100201.84;5133699;28;20450;-60
2022/03/15 02:07:11;;;;;;;1.90;1.20;;;;;;;21.14;nan;100211.72;5133615;28;20047;-60
2022/03/15 02:09:37;;;;;;;2.15;1.17;;;;;;;21.14;nan;100205.34;5133703;28;20052;-60
2022/03/15 02:12:03;;;;;;;2.10;1.20;;;;;;;21.13;nan;100212.88;5133482;28;20053;-60
2022/03/15 02:14:29;;;;;;;1.60;1.00;;;;;;;21.11;nan;100208.84;5133438;28;20048;-60
2022/03/15 02:16:55;;;;;;;2.13;1.23;;;;;;;21.14;nan;100213.69;5133340;28;20076;-60
2022/03/15 02:19:22;;;;;;;2.28;1.30;;;;;;;21.12;nan;100227.16;5133488;28;20047;-60
2022/03/15 02:21:48;;;;;;;1.48;1.10;;;;;;;21.13;nan;100223.19;5133399;28;20043;-60
2022/03/15 02:24:14;;;;;;;1.75;1.08;;;;;;;21.12;nan;100216.03;5133348;28;20092;-60
2022/03/15 02:26:39;;;;;;;1.75;1.10;;;;;;;21.14;nan;100214.50;5133278;28;20035;-59
2022/03/15 02:29:05;;;;;;;1.50;1.00;;;;;;;21.14;nan;100210.91;5133547;28;20043;-60
2022/03/15 02:31:30;;;;;;;1.98;1.20;;;;;;;21.14;nan;100219.25;5133371;28;20047;-60
2022/03/15 02:33:56;;;;;;;2.00;1.15;;;;;;;21.13;nan;100229.56;5133423;28;20051;-60
2022/03/15 02:36:21;;;;;;;2.50;1.30;;;;;;;21.12;nan;100227.16;5133404;28;20055;-60
2022/03/15 02:38:47;;;;;;;1.55;0.98;;;;;;;21.10;nan;100219.16;5133225;28;20172;-60
2022/03/15 02:41:14;;;;;;;1.75;1.10;;;;;;;21.10;nan;100223.94;5133278;28;20414;-60
2022/03/15 02:43:40;;;;;;;2.80;1.23;;;;;;;21.10;nan;100229.50;5133227;28;20047;-60
2022/03/15 02:46:07;;;;;;;1.80;1.15;;;;;;;21.10;nan;100219.16;5132790;28;20035;-60
2022/03/15 02:48:34;;;;;;;1.80;1.25;;;;;;;21.10;nan;100218.38;5133046;28;20078;-60
2022/03/15 02:51:04;;;;;;;2.05;1.20;;;;;;;21.11;nan;100228.31;5132896;28;20104;-60
2022/03/15 02:53:30;;;;;;;2.20;1.20;;;;;;;21.10;nan;100235.06;5132965;28;20499;-60
2022/03/15 02:55:55;;;;;;;2.22;1.33;;;;;;;21.10;nan;100235.06;5133046;28;20064;-60
2022/03/15 02:58:21;;;;;;;1.77;1.15;;;;;;;21.09;nan;100225.09;5133085;28;20169;-60
2022/03/15 03:00:46;;;;;;;1.85;1.17;;;;;;;21.08;nan;100231.81;5132837;28;20406;-60
2022/03/15 03:03:12;;;;;;;1.98;1.27;;;;;;;21.10;nan;100232.28;5132526;28;20458;-59
2022/03/15 03:05:39;;;;;;;1.80;1.10;;;;;;;21.11;nan;100226.34;5132676;27;20031;-60
2022/03/15 03:08:05;;;;;;;1.77;1.10;;;;;;;21.11;nan;100222.75;5132530;28;20043;-60
2022/03/15 03:10:34;;;;;;;1.73;1.23;;;;;;;21.09;nan;100228.69;5132712;28;20196;-60
2022/03/15 03:12:59;;;;;;;1.83;1.13;;;;;;;21.10;nan;100230.28;5132682;28;20039;-60
2022/03/15 03:15:26;;;;;;;1.83;1.10;;;;;;;21.10;nan;100233.06;5132637;28;20047;-60
2022/03/15 03:17:52;;;;;;;1.35;0.95;;;;;;;21.10;nan;100230.28;5132649;28;20051;-56
2022/03/15 03:20:19;;;;;;;1.98;1.10;;;;;;;21.09;nan;100233.44;5132584;28;20079;-57
2022/03/15 03:22:50;;;;;;;1.70;1.10;;;;;;;21.09;nan;100233.44;5131964;28;20047;-57
2022/03/15 03:25:17;;;;;;;2.10;1.20;;;;;;;21.10;nan;100229.50;5132574;28;20070;-56
2022/03/15 03:27:42;;;;;;;1.45;0.95;;;;;;;21.08;nan;100240.19;5132197;28;20043;-57
2022/03/15 03:30:09;;;;;;;1.60;0.90;;;;;;;21.07;nan;100236.56;5132268;28;20061;-57
2022/03/15 03:32:35;;;;;;;1.83;1.13;;;;;;;21.06;nan;100246.06;5132579;28;20051;-56
2022/03/15 03:35:04;;;;;;;1.60;1.10;;;;;;;21.06;nan;100240.50;5132465;28;20062;-57
2022/03/15 03:37:31;;;;;;;1.90;1.10;;;;;;;21.05;nan;100240.88;5132349;28;20478;-59
2022/03/15 03:39:56;;;;;;;2.22;1.30;;;;;;;21.07;nan;100231.00;5132272;28;20046;-60
2022/03/15 03:42:22;;;;;;;1.73;1.13;;;;;;;21.07;nan;100244.91;5131469;28;20047;-60
2022/03/15 03:44:47;;;;;;;1.90;1.33;;;;;;;21.07;nan;100242.13;5129018;28;20051;-57
2022/03/15 03:47:13;;;;;;;2.35;1.40;;;;;;;21.07;nan;100241.31;5131769;28;20043;-57
2022/03/15 03:49:39;;;;;;;1.90;1.15;;;;;;;21.07;nan;100246.88;5132129;28;20070;-60
2022/03/15 03:52:05;;;;;;;1.73;1.13;;;;;;;21.06;nan;100239.69;5132020;28;20138;-60
2022/03/15 03:54:32;;;;;;;1.70;1.10;;;;;;;21.08;nan;100254.09;5131927;28;20043;-60
2022/03/15 03:56:57;;;;;;;2.33;1.35;;;;;;;21.05;nan;100238.09;5131782;28;20502;-60
2022/03/15 03:59:23;;;;;;;1.90;1.13;;;;;;;21.03;nan;100241.22;5131843;28;20047;-60
2022/03/15 04:01:49;;;;;;;2.28;1.30;;;;;;;21.04;nan;100239.25;5131974;28;20134;-60
2022/03/15 04:04:14;;;;;;;2.55;1.45;;;;;;;21.06;nan;100236.91;5131778;28;20086;-56
2022/03/15 04:06:40;;;;;;;2.22;1.25;;;;;;;21.07;nan;100244.09;5131730;28;20376;-56
2022/03/15 04:09:07;;;;;;;1.80;1.20;;;;;;;21.06;nan;100242.47;5131629;28;20039;-56
2022/03/15 04:11:32;;;;;;;2.00;1.27;;;;;;;21.06;nan;100242.47;5131500;28;20039;-57
2022/03/15 04:13:59;;;;;;;1.50;1.00;;;;;;;21.05;nan;100243.66;5131493;28;20039;-56
2022/03/15 04:16:27;;;;;;;2.17;1.30;;;;;;;21.04;nan;100240.06;5131431;27;20051;-56
2022/03/15 04:18:53;;;;;;;2.17;1.30;;;;;;;21.05;nan;100232.53;5131246;28;20406;-56
2022/03/15 04:21:18;;;;;;;1.77;1.20;;;;;;;21.04;nan;100234.50;5131742;28;20503;-56
2022/03/15 04:23:45;;;;;;;2.10;1.40;;;;;;;21.04;nan;100237.28;5131650;28;20419;-57
2022/03/15 04:26:11;;;;;;;2.22;1.45;;;;;;;21.04;nan;100239.25;5131523;28;20050;-57
2022/03/15 04:28:36;;;;;;;2.10;1.52;;;;;;;21.04;nan;100240.06;5131410;28;20031;-56
2022/03/15 04:31:03;;;;;;;2.72;1.40;;;;;;;21.04;nan;100245.63;5131386;28;20051;-57
2022/03/15 04:33:29;;;;;;;2.42;1.50;;;;;;;21.02;nan;100247.16;5131681;28;20499;-56
2022/03/15 04:35:54;;;;;;;2.28;1.50;;;;;;;21.03;nan;100240.44;5131418;28;20043;-56
2022/03/15 04:38:19;;;;;;;2.17;1.40;;;;;;;21.01;nan;100238.00;5131303;28;20042;-56
2022/03/15 04:40:45;;;;;;;2.20;1.30;;;;;;;21.02;nan;100234.06;5131399;28;20050;-56
2022/03/15 04:43:11;;;;;;;2.10;1.27;;;;;;;21.01;nan;100238.00;5131479;28;20042;-56
2022/03/15 04:45:36;;;;;;;1.80;1.30;;;;;;;21.01;nan;100235.22;5131370;28;20043;-56
2022/03/15 04:48:01;;;;;;;2.47;1.30;;;;;;;21.01;nan;100228.84;5131214;28;20054;-56
2022/03/15 04:50:27;;;;;;;1.98;1.17;;;;;;;21.02;nan;100231.28;5131526;28;20046;-57
2022/03/15 04:52:52;;;;;;;1.90;1.17;;;;;;;21.03;nan;100223.75;5129353;28;20039;-56
2022/03/15 04:55:18;;;;;;;1.90;1.30;;;;;;;21.03;nan;100220.97;5131128;28;20047;-57
2022/03/15 04:57:44;;;;;;;2.40;1.48;;;;;;;21.03;nan;100227.31;5131403;28;20142;-56
2022/03/15 05:00:10;;;;;;;1.70;1.17;;;;;;;21.03;nan;100209.81;5129163;28;20047;-57
2022/03/15 05:02:41;;;;;;;2.13;1.30;;;;;;;20.98;nan;100191.41;5130838;28;20050;-57
2022/03/15 05:05:07;;;;;;;2.10;1.20;;;;;;;21.03;nan;100210.63;5130942;28;20054;-56
2022/03/15 05:07:33;;;;;;;2.30;1.40;;;;;;;21.03;nan;100215.41;5130888;28;20088;-56
2022/03/15 05:12:42;;;;;;;2.05;1.35;;;;;;;20.98;nan;100199.75;5131118;28;20050;-60
2022/03/15 05:15:08;;;;;;;2.60;1.60;;;;;;;21.01;nan;100203.81;5130935;28;20039;-60
2022/03/15 05:17:36;;;;;;;1.65;1.15;;;;;;;20.99;nan;100209.72;5130758;28;20126;-60
2022/03/15 05:20:05;;;;;;;2.40;1.30;;;;;;;20.99;nan;100204.16;5130715;28;20039;-60
2022/03/15 05:22:32;;;;;;;2.13;1.30;;;;;;;20.99;nan;100201.38;5130788;28;20044;-56
2022/03/15 05:24:58;;;;;;;2.35;1.33;;;;;;;20.99;nan;100195.81;5130836;28;20047;-57
2022/03/15 05:27:25;;;;;;;2.40;1.45;;;;;;;20.99;nan;100186.66;5130722;28;20047;-57
2022/03/15 05:29:50;;;;;;;2.13;1.33;;;;;;;20.97;nan;100195.38;5129493;27;20039;-56
2022/03/15 05:32:16;;;;;;;2.08;1.30;;;;;;;20.97;nan;100191.78;5130693;28;20503;-57
2022/03/15 05:34:41;;;;;;;2.03;1.40;;;;;;;20.98;nan;100194.19;5130532;28;20466;-56
2022/03/15 05:37:08;;;;;;;2.50;1.42;;;;;;;20.99;nan;100187.47;5130494;28;20050;-57
2022/03/15 05:39:34;;;;;;;2.33;1.40;;;;;;;21.00;nan;100191.06;5130526;28;20127;-57
2022/03/15 05:42:00;;;;;;;2.22;1.40;;;;;;;21.00;nan;100203.00;5130661;28;20507;-56
2022/03/15 05:44:26;;;;;;;2.40;1.27;;;;;;;20.99;nan;100198.59;5130566;28;20515;-56
2022/03/15 05:46:52;;;;;;;2.00;1.35;;;;;;;21.00;nan;100197.44;5130663;28;20046;-56
2022/03/15 05:49:17;;;;;;;2.55;1.42;;;;;;;21.00;nan;100191.88;5130395;28;20058;-56
2022/03/15 05:51:43;;;;;;;2.03;1.17;;;;;;;21.00;nan;100182.72;5130425;28;20062;-56
2022/03/15 05:54:08;;;;;;;2.10;1.40;;;;;;;21.00;nan;100179.94;5130516;28;20051;-56
2022/03/15 05:56:34;;;;;;;2.30;1.50;;;;;;;21.00;nan;100172.41;5130393;28;20058;-56
2022/03/15 05:58:59;;;;;;;2.05;1.42;;;;;;;21.01;nan;100181.56;5130546;28;20608;-56
2022/03/15 06:01:26;;;;;;;2.33;1.50;;;;;;;21.01;nan;100181.56;5130373;28;20039;-57
2022/03/15 06:03:52;;;;;;;2.13;1.20;;;;;;;21.01;nan;100187.13;5130241;28;20039;-56
2022/03/15 06:06:18;;;;;;;2.35;1.42;;;;;;;21.02;nan;100185.97;5130300;28;20055;-56
2022/03/15 06:08:43;;;;;;;2.33;1.45;;;;;;;21.00;nan;100182.72;5130155;28;20391;-57
2022/03/15 06:11:09;;;;;;;3.03;1.73;;;;;;;21.00;nan;100166.84;5130063;28;20050;-60
2022/03/15 06:13:34;;;;;;;2.15;1.30;;;;;;;21.00;nan;100171.59;5129954;28;20047;-60
2022/03/15 06:16:01;;;;;;;2.25;1.52;;;;;;;21.00;nan;100177.97;5129623;28;20050;-60
2022/03/15 06:18:27;;;;;;;2.40;1.55;;;;;;;20.99;nan;100169.97;5129678;28;20043;-60
2022/03/15 06:20:52;;;;;;;2.05;1.40;;;;;;;21.02;nan;100170.09;5129697;28;20403;-60
2022/03/15 06:23:18;;;;;;;2.05;1.20;;;;;;;21.00;nan;100164.06;5129831;28;20050;-60
2022/03/15 06:25:43;;;;;;;2.20;1.40;;;;;;;21.03;nan;100162.53;5129665;28;20062;-60
2022/03/15 06:28:08;;;;;;;2.30;1.60;;;;;;;21.00;nan;100166.03;5129604;28;20491;-57
2022/03/15 06:30:34;;;;;;;2.22;1.42;;;;;;;20.99;nan;100159.66;5129754;28;20403;-56
2022/03/15 06:32:59;;;;;;;2.17;1.40;;;;;;;21.00;nan;100158.50;5129754;28;20054;-56
2022/03/15 06:35:27;;;;;;;2.33;1.40;;;;;;;20.98;nan;100160.84;5129741;28;20122;-56
2022/03/15 06:37:53;;;;;;;1.90;1.30;;;;;;;20.99;nan;100153.28;5129633;28;20043;-60
2022/03/15 06:40:23;;;;;;;2.08;1.30;;;;;;;20.97;nan;100158.41;5130331;27;20043;-56
2022/03/15 06:42:48;;;;;;;2.75;1.33;;;;;;;20.94;nan;100162.72;5133239;28;20100;-57
2022/03/15 06:45:15;;;;;;;4.63;1.60;;;;;;;20.86;nan;100175.63;5133092;28;20133;-57
2022/03/15 06:47:40;;;;;;;20.20;2.67;;;;;;;20.85;nan;100162.88;5133053;28;20069;-57
2022/03/15 06:50:08;;;;;;;10.45;1.80;;;;;;;20.86;nan;100142.28;5132741;28;20082;-57
2022/03/15 06:52:37;;;;;;;8.05;1.70;;;;;;;20.85;nan;100160.09;5132996;28;20058;-57
2022/03/15 06:55:04;;;;;;;6.75;1.65;;;;;;;20.88;nan;100164.16;5133069;28;20054;-57
2022/03/15 06:57:30;;;;;;;11.43;1.75;;;;;;;20.87;nan;100165.31;5132792;28;20388;-57
2022/03/15 06:59:56;;;;;;;5.80;1.70;;;;;;;20.88;nan;100166.94;5132978;28;20040;-57
2022/03/15 07:02:23;;;;;;;9.45;1.73;;;;;;;20.88;nan;100164.16;5132740;28;20414;-57
2022/03/15 07:04:48;;;;;;;9.27;1.80;;;;;;;20.89;nan;100160.19;5132773;28;20055;-60
2022/03/15 07:07:15;;;;;;;5.25;1.83;;;;;;;20.87;nan;100166.13;5132769;28;20135;-59
2022/03/15 07:09:41;;;;;;;5.30;1.60;;;;;;;20.90;nan;100172.94;5132686;28;20047;-59
2022/03/15 07:12:07;;;;;;;6.55;1.65;;;;;;;20.89;nan;100157.41;5132805;28;20039;-59
2022/03/15 07:14:32;;;;;;;7.00;1.70;;;;;;;20.89;nan;100162.97;5132482;28;20100;-59
2022/03/15 07:16:58;;;;;;;5.30;1.38;;;;;;;20.89;nan;100165.75;5132285;28;20043;-59
2022/03/15 07:19:24;;;;;;;5.72;1.65;;;;;;;20.91;nan;100162.63;5132528;28;20057;-59
2022/03/15 07:21:49;;;;;;;4.03;1.70;;;;;;;20.89;nan;100147.09;5132592;28;20051;-59
2022/03/15 07:24:14;;;;;;;5.43;1.48;;;;;;;20.89;nan;100147.09;5132629;28;20075;-59
2022/03/15 07:26:40;;;;;;;6.03;1.70;;;;;;;20.90;nan;100145.13;5132530;28;20085;-59
2022/03/15 07:29:05;;;;;;;4.00;1.42;;;;;;;20.90;nan;100147.91;5132310;28;20086;-59
2022/03/15 07:31:31;;;;;;;6.10;1.40;;;;;;;20.89;nan;100157.41;5132275;28;20036;-59
2022/03/15 07:33:56;;;;;;;4.93;1.60;;;;;;;20.88;nan;100156.63;5132340;28;20575;-59
2022/03/15 07:36:22;;;;;;;2.97;1.80;;;;;;;20.89;nan;100161.00;5131974;28;20444;-59
2022/03/15 07:38:48;;;;;;;3.78;1.50;;;;;;;20.87;nan;100146.66;5132364;28;20035;-59
2022/03/15 07:41:16;;;;;;;2.45;1.50;;;;;;;20.91;nan;100148.72;5117166;28;20046;-59
2022/03/15 07:43:41;;;;;;;2.38;1.40;;;;;;;20.88;nan;100162.19;5118259;28;20062;-59
2022/03/15 07:46:07;;;;;;;2.22;1.40;;;;;;;20.90;nan;100172.94;5118944;27;20061;-59
2022/03/15 07:48:32;;;;;;;2.92;1.50;;;;;;;20.87;nan;100165.31;5117976;28;20044;-60
2022/03/15 07:50:58;;;;;;;2.75;1.33;;;;;;;20.85;nan;100160.09;5112547;28;20135;-59
2022/03/15 07:53:23;;;;;;;4.07;1.20;;;;;;;20.83;nan;100154.09;5126447;27;20063;-59
2022/03/15 07:55:49;;;;;;;3.83;1.30;;;;;;;20.80;nan;100159.56;5122286;28;20042;-59
2022/03/15 07:58:14;;;;;;;2.47;1.20;;;;;;;20.77;nan;100157.47;5127550;28;20456;-60
2022/03/15 08:00:39;;;;;;;5.47;1.40;;;;;;;20.73;nan;100164.94;5109927;28;20048;-58
2022/03/15 08:03:05;;;;;;;2.95;1.50;;;;;;;20.76;nan;100162.25;5125286;28;20055;-58
2022/03/15 08:05:30;;;;;;;5.32;1.77;;;;;;;20.74;nan;100161.00;5117101;28;20035;-58
2022/03/15 08:07:56;;;;;;;2.40;1.40;;;;;;;20.74;nan;100155.44;5114304;28;20048;-56
2022/03/15 08:10:22;;;;;;;2.03;1.38;;;;;;;20.73;nan;100143.50;5112335;28;20043;-58
2022/03/15 08:12:48;;;;;;;2.67;1.70;;;;;;;20.74;nan;100139.56;5120928;28;20057;-55
2022/03/15 08:15:13;;;;;;;2.95;1.70;;;;;;;20.77;nan;100149.16;5114364;28;20083;-58
2022/03/15 08:17:40;;;;;;;2.55;1.40;;;;;;;20.75;nan;100157.03;5125596;28;20055;-58
2022/03/15 08:20:07;;;;;;;7.30;1.75;;;;;;;20.79;nan;100147.66;5121948;28;20112;-68
2022/03/15 08:22:32;;;;;;;7.30;1.70;;;;;;;20.84;nan;100147.34;5124583;27;20040;-57
2022/03/15 08:24:58;;;;;;;3.20;1.50;;;;;;;20.85;nan;100145.38;5109182;28;20058;-57
2022/03/15 08:27:24;;;;;;;2.40;1.50;;;;;;;20.85;nan;100145.38;5122828;28;20530;-58
2022/03/15 08:29:50;;;;;;;3.05;1.80;;;;;;;20.87;nan;100143.88;5107495;28;20047;-57
2022/03/15 08:32:16;;;;;;;2.63;1.48;;;;;;;21.15;nan;100145.78;5108933;28;20717;-59
2022/03/15 08:34:42;;;;;;;2.85;1.48;;;;;;;21.63;nan;100140.97;5119816;28;20097;-57
2022/03/15 08:37:08;;;;;;;2.63;1.60;;;;;;;22.59;nan;100134.69;5127434;28;20035;-56
2022/03/15 08:39:34;;;;;;;3.45;1.50;;;;;;;23.53;nan;100135.09;5129181;28;20050;-58
2022/03/15 08:42:00;;;;;;;2.53;1.40;;;;;;;24.28;nan;100139.72;5127594;28;20047;-57
2022/03/15 08:44:26;;;;;;;2.53;1.48;;;;;;;24.97;nan;100139.31;5109731;28;20778;-56
2022/03/15 08:46:51;;;;;;;2.25;1.40;;;;;;;25.45;nan;100142.94;5124749;28;20054;-57
2022/03/15 08:49:19;;;;;;;1.70;1.20;;;;;;;25.87;nan;100141.66;5129060;28;20053;-58
2022/03/15 08:51:46;;;;;;;2.30;1.40;;;;;;;26.18;nan;100134.59;5130106;28;20061;-57
2022/03/15 08:54:12;;;;;;;2.60;1.52;;;;;;;26.35;nan;100144.25;5126589;28;20088;-57
2022/03/15 08:56:41;;;;;;;1.88;1.20;;;;;;;26.62;nan;100147.56;5129469;28;20459;-58
2022/03/15 08:59:12;;;;;;;1.95;1.25;;;;;;;26.83;nan;100132.78;5108053;28;20056;-57
2022/03/15 09:01:38;;;;;;;1.90;1.30;;;;;;;27.03;nan;100141.63;5109899;28;20071;-56
2022/03/15 09:04:04;;;;;;;2.72;1.63;;;;;;;27.04;nan;100129.19;5111508;27;20457;-57
2022/03/15 09:06:30;;;;;;;2.75;1.55;;;;;;;27.20;nan;100126.81;5112091;28;21150;-57
2022/03/15 09:08:55;;;;;;;2.03;1.27;;;;;;;27.29;nan;100129.22;5120943;28;20154;-58
2022/03/15 09:11:21;;;;;;;4.03;1.50;;;;;;;27.26;nan;100135.66;5126076;28;20476;-58
2022/03/15 09:13:46;;;;;;;1.80;1.25;;;;;;;27.32;nan;100145.28;5107881;28;20093;-57
2022/03/15 09:16:13;;;;;;;2.60;1.60;;;;;;;27.29;nan;100124.44;5111911;28;20094;-57
2022/03/15 09:18:39;;;;;;;2.80;1.40;;;;;;;27.24;nan;100129.63;5123247;27;20047;-56
2022/03/15 09:21:06;;;;;;;2.08;1.40;;;;;;;26.63;nan;100118.31;5107542;28;20076;-56
2022/03/15 09:23:32;;;;;;;2.75;1.60;;;;;;;26.02;nan;100120.09;5105067;27;20108;-57
2022/03/15 09:25:57;;;;;;;2.63;1.60;;;;;;;25.49;nan;100106.53;5112936;28;20036;-57
2022/03/15 09:28:23;;;;;;;3.65;1.50;;;;;;;25.12;nan;100107.47;5106431;28;20088;-57
2022/03/15 09:30:48;;;;;;;2.75;1.40;;;;;;;24.90;nan;100100.88;5111981;28;20039;-57
2022/03/15 09:33:13;;;;;;;2.35;1.48;;;;;;;24.70;nan;100096.69;5098159;27;20044;-57
2022/03/15 09:35:41;;;;;;;2.65;1.33;;;;;;;24.59;nan;100092.97;5109240;27;20035;-57
2022/03/15 09:38:07;;;;;;;3.28;1.60;;;;;;;24.40;nan;100096.78;5112650;27;20531;-58
2022/03/15 09:40:32;;;;;;;3.20;1.60;;;;;;;24.22;nan;100087.34;5114579;28;20088;-58
2022/03/15 09:43:02;;;;;;;2.45;1.48;;;;;;;24.23;nan;100083.38;5109184;28;20587;-57
2022/03/15 09:45:30;;;;;;;2.80;1.45;;;;;;;24.34;nan;100078.72;5122523;28;20533;-57
2022/03/15 09:47:58;;;;;;;2.35;1.50;;;;;;;24.41;nan;100073.22;5120926;27;20210;-57
2022/03/15 09:50:25;;;;;;;3.53;1.60;;;;;;;24.30;nan;100075.06;5114972;28;20039;-58
2022/03/15 09:52:56;;;;;;;2.63;1.30;;;;;;;23.90;nan;100079.38;5121232;28;20043;-57
2022/03/15 09:55:22;;;;;;;3.25;2.08;;;;;;;23.57;nan;100075.31;5121220;28;20050;-57
2022/03/15 09:57:48;;;;;;;4.07;2.03;;;;;;;23.11;nan;100088.59;5112197;28;20059;-58
2022/03/15 10:00:16;;;;;;;3.00;1.92;;;;;;;22.75;nan;100074.00;5123427;27;20124;-58
2022/03/15 10:02:43;;;;;;;2.83;1.75;;;;;;;22.50;nan;100076.38;5117197;27;20051;-58
2022/03/15 10:05:10;;;;;;;5.53;2.00;;;;;;;22.32;nan;100077.19;5111853;27;20071;-58
2022/03/15 10:07:36;;;;;;;3.80;2.00;;;;;;;22.19;nan;100082.13;5117627;27;20126;-56
2022/03/15 10:10:08;;;;;;;3.42;1.67;;;;;;;22.06;nan;100063.91;5117662;28;20499;-57
2022/03/15 10:12:34;;;;;;;8.32;1.90;;;;;;;22.02;nan;100054.69;5115140;28;20521;-57
2022/03/15 10:15:17;;;;;;;3.97;1.75;;;;;;;21.98;nan;100047.06;5113302;27;20040;-58
2022/03/15 10:17:53;;;;;;;5.35;1.48;;;;;;;21.99;nan;100053.44;5119446;28;20051;-58
2022/03/15 10:20:23;;;;;;;2.75;1.60;;;;;;;21.93;nan;100044.59;5112282;28;20142;-57
2022/03/15 10:22:55;;;;;;;3.60;1.60;;;;;;;21.95;nan;100053.38;5116949;28;20533;-56
2022/03/15 10:25:22;;;;;;;2.65;1.50;;;;;;;21.92;nan;100054.09;5122429;27;20059;-56
2022/03/15 10:27:59;;;;;;;2.83;1.55;;;;;;;21.86;nan;100052.81;5122868;27;20088;-57
2022/03/15 10:30:27;;;;;;;15.27;2.15;;;;;;;21.87;nan;100054.41;5124587;27;20039;-56
2022/03/15 10:32:53;;;;;;;9.70;1.63;;;;;;;21.85;nan;100039.22;5122205;27;20099;-56
2022/03/15 10:35:27;;;;;;;9.75;1.85;;;;;;;21.81;nan;100044.72;5109477;27;20531;-57
2022/03/15 10:37:54;;;;;;;6.28;1.60;;;;;;;21.83;nan;100024.88;5122763;27;20043;-57
2022/03/15 10:40:35;;;;;;;7.38;1.50;;;;;;;21.82;nan;100029.63;5123078;27;20048;-58
2022/03/15 10:43:06;;;;;;;7.80;1.70;;;;;;;21.82;nan;100017.69;5120406;27;20045;-57
2022/03/15 10:45:32;;;;;;;5.97;1.60;;;;;;;21.86;nan;100010.19;5121006;28;20529;-56
2022/03/15 10:47:57;;;;;;;3.30;1.50;;;;;;;21.85;nan;100009.38;5123071;28;20415;-56
2022/03/15 10:50:24;;;;;;;4.20;1.55;;;;;;;21.82;nan;100004.56;5123685;27;20047;-56
2022/03/15 10:52:51;;;;;;;3.58;1.60;;;;;;;21.79;nan;100010.03;5124943;27;20119;-56
2022/03/15 10:55:25;;;;;;;3.00;1.50;;;;;;;21.78;nan;100000.88;5123275;28;20031;-56
2022/03/15 10:57:53;;;;;;;7.28;1.70;;;;;;;21.76;nan;99997.69;5122115;28;20047;-56
2022/03/15 11:00:41;;;;;;;2.08;1.40;;;;;;;21.74;nan;100004.78;5124257;28;20043;-56
2022/03/15 11:03:19;;;;;;;5.43;1.73;;;;;;;21.76;nan;99994.88;5120347;28;20511;-57
2022/03/15 11:05:47;;;;;;;5.88;1.70;;;;;;;21.77;nan;99985.34;5118801;27;20050;-58
2022/03/15 11:08:15;;;;;;;4.38;1.50;;;;;;;21.78;nan;99980.59;5114263;28;20534;-58
2022/03/15 11:10:45;;;;;;;2.10;1.30;;;;;;;21.75;nan;99989.69;5122909;27;20043;-58
2022/03/15 11:13:11;;;;;;;2.38;1.40;;;;;;;21.71;nan;99972.91;5121787;27;21581;-58
2022/03/15 11:15:40;;;;;;;4.93;1.52;;;;;;;21.70;nan;99974.09;5124284;27;20130;-58
2022/03/15 11:18:08;;;;;;;3.85;1.70;;;;;;;21.70;nan;99971.28;5122850;28;20043;-58
2022/03/15 11:20:39;;;;;;;3.17;1.35;;;;;;;21.66;nan;99970.44;5122800;27;20409;-58
2022/03/15 11:23:09;;;;;;;1.98;1.20;;;;;;;21.66;nan;99968.47;5121185;27;20047;-58
2022/03/15 11:25:35;;;;;;;4.28;1.30;;;;;;;21.66;nan;99973.22;5119843;27;20051;-58
2022/03/15 11:28:03;;;;;;;3.13;1.30;;;;;;;21.64;nan;99953.28;5122292;27;20031;-58
2022/03/15 11:30:29;;;;;;;5.35;1.38;;;;;;;21.66;nan;99968.47;5120451;28;20043;-58
2022/03/15 11:32:56;;;;;;;3.42;1.52;;;;;;;21.66;nan;99956.50;5121931;28;20323;-58
2022/03/15 11:35:23;;;;;;;4.13;1.23;;;;;;;21.66;nan;99968.47;5123553;27;20047;-58
2022/03/15 11:37:51;;;;;;;2.13;1.33;;;;;;;21.66;nan;99964.88;5120583;27;20350;-58
2022/03/15 11:40:18;;;;;;;2.42;1.40;;;;;;;21.71;nan;99962.56;5124410;27;20511;-58